Terminal Aerodrome Forecast
Issued by NWS

Home | Current Version | Previous Version | Graphics & Text | Print | Product List | Glossary Off
Versions: 1 2 3 4 5 6 7 8 9 10 11 12 13 14 15 16 17 18

825
FTUS43 KABR 282346 CCA
TAFPIR
TAF COR
KPIR 282346Z 2900/2924 29014KT P6SM SCT100
     FM290200 33011KT P6SM SKC
     FM291500 32018G26KT P6SM SCT070=

USA.gov is the U.S. government's official web portal to all federal, state and local government web resources and services.